Latest Weather Observations for Argyle

IDD60801

Issued at 12:01 am CST Sunday 24 May 2015 (issued every 30 minutes, with the page automatically refreshed every 10 minutes)

About weather observations | Map of weather stations | Latest weather observations for NT | Other Formats
Station Details ID: 002064 Name: ARGYLE AERODROME Lat: -16.64 Lon: 128.45 Height: 164.0 m
Data from the previous 72 hours. | See also: Recent months at Argyle
Date/Time
CST
Temp
°C
App
Temp
°C
Dew
Point
Rel
Hum
%
Delta-T
°C
Wind Press
QNH
hPa
Press
MSL
hPa
Rain
since 9 am
mm
Dir
 
Spd
km/h
Gust
km/h
Spd
kts
Gust
kts
23/11:30pm 21.4 17.8 4.8 33 8.2 E 13 17 7 9 1017.6 - 0.0
23/11:00pm 21.8 19.1 5.7 35 8.1 E 9 9 5 5 1017.5 - 0.0
23/10:30pm 23.9 20.7 5.1 29 9.5 SE 11 13 6 7 1017.6 1016.8 0.0
23/09:30pm 25.1 22.2 4.7 26 10.3 SSE 9 13 5 7 1017.5 - 0.0
23/09:00pm 25.1 21.9 5.0 27 10.2 SE 11 13 6 7 1017.3 - 0.0
23/08:30pm 25.0 22.9 6.6 30 9.6 ESE 7 9 4 5 1017.1 - 0.0
23/08:00pm 25.8 23.1 5.7 27 10.4 SE 9 11 5 6 1016.8 - 0.0
23/07:00pm 27.0 25.0 6.3 26 10.9 ENE 6 7 3 4 1016.4 - 0.0
23/06:30pm 28.3 26.4 6.5 25 11.6 E 6 7 3 4 1016.1 - 0.0
23/06:00pm 29.7 27.1 4.0 19 13.2 E 7 13 4 7 1016.0 - 0.0
23/05:30pm 30.0 26.4 2.9 17 13.7 ESE 11 17 6 9 1015.7 - 0.0
23/05:00pm 30.3 27.1 2.8 17 13.9 ENE 9 13 5 7 1015.5 - 0.0
23/04:30pm 30.3 27.0 2.4 17 14.0 ESE 9 15 5 8 1015.4 1014.5 0.0
23/04:00pm 30.1 27.0 3.5 18 13.6 ESE 9 17 5 9 1015.6 - 0.0
23/03:30pm 29.9 26.1 1.5 16 14.0 ESE 11 19 6 10 1016.0 - 0.0
23/03:00pm 29.2 25.4 1.5 17 13.6 ESE 11 17 6 9 1016.4 - 0.0
23/02:00pm 28.3 24.2 0.1 16 13.4 SE 11 19 6 10 1017.6 - 0.0
23/01:30pm 27.6 23.6 0.5 17 12.9 E 11 20 6 11 1018.2 1017.4 0.0
23/12:30pm 27.1 22.9 -1.1 15 13.0 E 11 19 6 10 1019.3 - 0.0
23/12:00pm 26.1 21.5 -1.4 16 12.5 E 13 17 7 9 1019.9 - 0.0
23/11:30am 25.7 20.7 -1.5 16 12.3 ESE 15 20 8 11 1020.4 - 0.0
23/10:30am 23.9 19.8 -0.2 20 11.0 E 11 17 6 9 1021.2 1020.3 0.0
23/10:00am 23.6 18.6 -1.3 19 11.1 E 15 24 8 13 1021.3 - 0.0
23/09:30am 23.2 18.7 -0.5 20 10.7 E 13 26 7 14 1021.2 - 0.0
23/09:00am 22.4 19.0 2.0 26 9.6 ESE 9 15 5 8 1021.3 - 0.0
23/07:00am 18.5 16.5 7.0 47 5.8 E 7 9 4 5 1020.1 - 0.0
23/06:30am 19.0 16.4 6.2 43 6.4 E 9 11 5 6 1019.8 - 0.0
23/05:30am 19.6 17.6 7.3 45 6.3 ENE 7 7 4 4 1019.3 - 0.0
23/05:00am 20.4 18.5 6.9 41 6.9 ENE 6 7 3 4 1019.3 - 0.0
23/04:30am 21.0 19.0 6.1 38 7.5 NNE 6 9 3 5 1019.3 1018.4 0.0
23/04:00am 20.0 19.7 8.8 48 5.9 CALM 0 4 0 2 1019.1 - 0.0
23/03:30am 21.4 19.4 7.3 40 7.3 S 7 9 4 5 1019.0 - 0.0
23/03:00am 21.0 19.8 8.2 43 6.7 S 4 7 2 4 1019.1 - 0.0
23/01:30am 22.4 22.2 9.2 43 7.1 CALM 0 0 0 0 1019.0 1018.1 0.0
23/01:00am 22.9 22.0 9.2 41 7.4 ENE 4 7 2 4 1019.0 - 0.0
23/12:30am 23.7 22.2 8.6 38 8.1 N 6 9 3 5 1019.2 - 0.0
23/12:00am 23.5 22.2 10.1 42 7.4 ESE 7 11 4 6 1019.1 - 0.0
 
Date/Time
CST
Temp
°C
App
Temp
°C
Dew
Point
Rel
Hum
%
Delta-T
°C
Wind Press
QNH
hPa
Press
MSL
hPa
Rain
since 9 am
mm
Dir
 
Spd
km/h
Gust
km/h
Spd
kts
Gust
kts
22/11:30pm 24.2 21.5 9.1 38 8.2 ESE 13 17 7 9 1018.8 - 0.0
22/11:00pm 23.8 21.8 10.0 41 7.6 ESE 11 13 6 7 1018.8 - 0.0
22/10:30pm 24.1 22.7 10.9 43 7.4 E 9 11 5 6 1018.9 1018.0 0.0
22/10:00pm 24.6 23.1 10.4 40 7.9 E 9 11 5 6 1018.7 - 0.0
22/09:30pm 26.1 24.2 10.4 37 8.8 ESE 11 15 6 8 1018.4 - 0.0
22/09:00pm 26.6 25.7 11.2 38 8.8 SE 7 9 4 5 1017.9 - 0.0
22/08:30pm 27.1 26.7 12.3 39 8.6 E 6 7 3 4 1017.6 - 0.0
22/08:00pm 27.4 26.9 11.9 38 9.0 E 6 7 3 4 1017.2 - 0.0
22/07:30pm 27.9 27.6 12.6 38 9.0 ENE 6 7 3 4 1017.0 1016.1 0.0
22/07:00pm 28.4 27.6 11.7 35 9.7 ENE 7 7 4 4 1016.7 - 0.0
22/06:30pm 29.7 28.1 10.2 29 11.1 E 9 13 5 7 1016.5 - 0.0
22/06:00pm 30.9 28.8 9.8 27 12.0 ENE 11 15 6 8 1016.2 - 0.0
22/05:30pm 31.5 29.8 9.8 26 12.4 ENE 9 15 5 8 1016.0 - 0.0
22/05:00pm 31.4 29.4 10.1 26 12.2 E 11 20 6 11 1015.9 - 0.0
22/04:30pm 31.4 28.9 9.6 26 12.4 ESE 13 22 7 12 1015.9 1015.0 0.0
22/04:00pm 31.7 30.1 10.1 26 12.4 SE 9 15 5 8 1015.9 - 0.0
22/03:30pm 31.2 28.6 9.3 25 12.4 ESE 13 20 7 11 1016.3 - 0.0
22/03:00pm 30.8 28.7 9.7 27 12.0 E 11 20 6 11 1016.5 - 0.0
22/02:30pm 30.8 26.7 8.6 25 12.4 E 20 24 11 13 1016.8 - 0.0
22/02:00pm 29.9 26.5 9.0 27 11.7 ESE 17 24 9 13 1017.3 - 0.0
22/01:30pm 29.8 26.3 8.8 27 11.7 E 17 24 9 13 1017.8 1017.0 0.0
22/01:00pm 29.8 26.2 8.5 26 11.8 E 17 26 9 14 1018.3 - 0.0
22/12:30pm 29.3 25.3 8.2 26 11.6 E 19 26 10 14 1018.9 - 0.0
22/12:00pm 28.3 24.7 8.4 28 10.9 SE 17 30 9 16 1019.7 - 0.0
22/11:30am 27.8 24.6 8.5 29 10.6 ESE 15 24 8 13 - - 0.0
22/11:00am 27.2 22.9 8.0 29 10.4 ESE 20 28 11 15 1020.5 - 0.0
22/10:30am 26.7 23.1 8.5 31 9.9 ESE 17 22 9 12 1020.5 1019.6 0.0
22/10:00am 25.9 22.2 8.1 32 9.6 SE 17 22 9 12 1020.8 - 0.0
22/09:30am 25.6 22.0 8.4 33 9.3 SE 17 22 9 12 1020.5 - 0.0
22/09:00am 25.0 21.4 8.3 34 9.0 SE 17 22 9 12 1020.3 - 0.0
22/08:30am 24.0 21.6 8.6 37 8.3 SSE 11 17 6 9 1020.2 - 0.0
22/08:00am 23.0 21.1 9.1 41 7.5 SE 9 11 5 6 1019.8 - 0.0
22/07:30am 21.6 20.3 9.8 47 6.4 ESE 7 9 4 5 1019.4 1018.5 0.0
22/07:00am 21.9 20.7 9.7 45 6.6 SSE 6 9 3 5 1019.1 - 0.0
22/06:30am 22.1 20.8 10.0 46 6.6 SE 7 9 4 5 1018.2 - 0.0
22/06:00am 22.6 21.5 10.0 44 6.9 SE 6 9 3 5 1017.8 - 0.0
22/05:30am 22.8 22.2 10.5 45 6.8 ESE 4 6 2 3 1017.7 - 0.0
22/05:00am 23.4 21.3 9.9 42 7.4 E 11 13 6 7 1017.4 - 0.0
22/04:30am 24.0 24.3 10.8 43 7.4 CALM 0 0 0 0 1017.4 1016.6 0.0
22/04:00am 24.2 23.3 10.8 43 7.5 S 6 7 3 4 1017.3 - 0.0
22/03:30am 24.4 24.4 9.9 40 8.0 CALM 0 0 0 0 1017.2 - 0.0
22/03:00am 24.4 24.3 9.4 38 8.2 CALM 0 0 0 0 1017.1 - 0.0
22/02:30am 24.7 24.6 9.6 38 8.3 CALM 0 0 0 0 1017.2 - 0.0
22/02:00am 25.2 25.2 9.9 38 8.5 CALM 0 6 0 3 1017.4 - 0.0
22/01:30am 25.8 25.7 9.5 35 9.0 CALM 0 0 0 0 1017.5 1016.7 0.0
22/01:00am 26.3 25.9 9.8 35 9.2 W 2 7 1 4 1017.4 - 0.0
22/12:30am 26.0 25.3 8.5 33 9.5 S 2 9 1 5 1017.4 - 0.0
22/12:00am 27.0 25.3 8.2 30 10.2 N 7 9 4 5 1017.4 - 0.0
 
Date/Time
CST
Temp
°C
App
Temp
°C
Dew
Point
Rel
Hum
%
Delta-T
°C
Wind Press
QNH
hPa
Press
MSL
hPa
Rain
since 9 am
mm
Dir
 
Spd
km/h
Gust
km/h
Spd
kts
Gust
kts
21/11:30pm 25.9 24.3 8.6 33 9.4 E 7 11 4 6 1017.3 - 0.0
21/11:00pm 26.5 24.2 9.0 33 9.6 ESE 11 13 6 7 1017.0 - 0.0
21/10:30pm 27.1 24.8 8.9 31 10.0 ESE 11 15 6 8 1016.8 1015.9 0.0
21/10:00pm 27.3 24.9 8.7 31 10.2 ESE 11 15 6 8 1016.9 - 0.0
21/09:30pm 27.4 25.7 9.7 33 9.9 SE 9 11 5 6 1016.7 - 0.0
21/09:00pm 28.7 27.0 9.7 30 10.7 SSE 9 11 5 6 1016.6 - 0.0
21/08:30pm 29.2 27.4 9.4 29 11.1 SSE 9 11 5 6 1016.3 - 0.0
21/08:00pm 29.5 28.3 10.2 30 11.0 SSE 7 9 4 5 1015.9 - 0.0
21/07:30pm 30.4 28.8 10.1 28 11.6 SSE 9 11 5 6 1015.6 1014.7 0.0
21/07:00pm 31.1 29.8 9.9 27 12.1 ESE 7 9 4 5 1015.2 - 0.0
21/06:30pm 32.5 30.5 8.5 22 13.5 ESE 9 15 5 8 1014.8 - 0.0
21/06:00pm 34.0 31.1 8.3 20 14.5 ESE 13 17 7 9 1014.4 - 0.0
21/05:30pm 34.7 30.8 6.9 18 15.4 E 17 20 9 11 1014.2 - 0.0
21/05:00pm 35.2 32.3 8.2 19 15.3 E 13 20 7 11 1013.9 - 0.0
21/04:30pm 35.3 32.2 7.2 17 15.7 ENE 13 20 7 11 1013.9 1013.0 0.0
21/04:00pm 35.2 32.1 7.3 18 15.6 ESE 13 20 7 11 1013.9 - 0.0
21/03:30pm 35.3 33.8 9.0 20 15.1 S 7 13 4 7 1014.0 - 0.0
21/03:00pm 35.3 33.3 7.2 17 15.7 NW 7 11 4 6 1014.3 - 0.0
21/02:30pm 34.8 32.9 7.4 18 15.3 SW 7 20 4 11 1014.7 - 0.0
21/02:00pm 33.9 31.1 6.9 18 14.9 E 11 20 6 11 1015.3 - 0.0
21/01:30pm 33.7 30.9 7.1 19 14.7 ESE 11 24 6 13 1016.0 1015.1 0.0
21/01:00pm 33.5 29.1 6.7 19 14.7 SE 19 20 10 11 1016.5 - 0.0
21/12:30pm 32.5 28.4 6.3 19 14.2 SSE 17 26 9 14 1017.0 - 0.0
21/12:00pm 31.9 28.4 5.4 19 14.1 ESE 13 20 7 11 1017.3 - 0.0
21/11:30am 31.5 28.0 5.6 19 13.8 SE 13 24 7 13 1017.7 - 0.0
21/11:00am 30.1 26.0 4.5 19 13.3 SE 15 22 8 12 1018.0 - 0.0
21/10:30am 29.9 26.0 3.3 18 13.5 SSE 13 17 7 9 1018.3 1017.5 0.0
21/10:00am 28.3 25.4 4.9 22 12.1 S 9 17 5 9 1018.5 - 0.0
21/09:30am 26.8 23.8 5.9 26 10.9 S 11 17 6 9 1018.4 - 0.0
21/09:00am 23.9 21.4 6.5 32 9.0 SSE 9 11 5 6 1018.3 - 0.0
21/08:30am 22.5 20.6 6.5 35 8.2 SSE 6 9 3 5 1017.7 - 0.0
21/08:00am 22.2 19.6 6.1 35 8.2 SSE 9 15 5 8 1017.4 - 0.0
21/07:30am 21.5 19.2 5.5 35 8.0 SE 7 11 4 6 1016.9 1016.0 0.0
21/07:00am 20.2 18.8 7.4 43 6.6 ESE 4 7 2 4 1016.4 - 0.0
21/06:30am 19.9 18.3 6.2 41 6.9 W 4 7 2 4 1016.2 - 0.0
21/06:00am 21.9 20.4 7.0 38 7.7 S 4 9 2 5 1015.9 - 0.0
21/05:30am 22.4 19.8 6.1 34 8.3 SSW 9 11 5 6 1015.7 - 0.0
21/05:00am 23.0 20.3 5.7 32 8.8 W 9 11 5 6 1015.6 - 0.0
21/04:30am 22.7 20.0 5.8 33 8.6 W 9 11 5 6 1015.8 1014.9 0.0
21/04:00am 21.9 18.7 5.3 34 8.3 W 11 13 6 7 1015.8 - 0.0
21/03:30am 21.9 19.6 5.6 34 8.2 NW 7 9 4 5 1015.9 - 0.0
21/03:00am 23.2 20.7 4.8 30 9.2 SSE 7 11 4 6 1016.0 - 0.0
21/02:30am 22.2 19.6 6.1 35 8.2 ESE 9 13 5 7 1016.2 - 0.0
21/02:00am 23.2 19.9 4.8 30 9.2 E 11 17 6 9 1016.5 - 0.0

Other Formats:

Comma delimited format used in spreadsheet applications
http://www.bom.gov.au/fwo/IDD60801/IDD60801.94217.axf

JavaScript Object Notation format (JSON) in row-major order
http://www.bom.gov.au/fwo/IDD60801/IDD60801.94217.json